Time;durP1;ratioP1;P1;durP2;ratioP2;P2;SDS_P1;SDS_P2;PMS_P1;PMS_P2;Temp;Humidity;BMP_temperature;BMP_pressure;BME280_temperature;BME280_humidity;BME280_pressure;Samples;Min_cycle;Max_cycle;Signal;HPM_P1;HPM_P2
2022/04/21 00:00:16;;;;;;;9.60;5.13;;;16.30;46.00;;;;;;4897601;29;20958;-93
2022/04/21 00:02:44;;;;;;;10.07;4.97;;;16.30;46.30;;;;;;4895094;29;20298;-93
2022/04/21 00:05:13;;;;;;;8.23;4.40;;;16.30;46.20;;;;;;4896111;29;20210;-94
2022/04/21 00:07:41;;;;;;;11.50;5.30;;;16.30;46.40;;;;;;4896621;29;20282;-94
2022/04/21 00:10:11;;;;;;;10.20;4.73;;;16.20;46.20;;;;;;4897201;29;20219;-94
2022/04/21 00:12:40;;;;;;;8.40;4.80;;;16.30;46.50;;;;;;4904607;29;20272;-93
2022/04/21 00:15:09;;;;;;;11.50;5.53;;;16.20;46.50;;;;;;4895575;29;20208;-92
2022/04/21 00:17:36;;;;;;;9.03;5.17;;;16.20;46.20;;;;;;4895966;29;20217;-93
2022/04/21 00:20:10;;;;;;;8.80;4.53;;;16.20;46.20;;;;;;4897592;29;20216;-94
2022/04/21 00:25:23;;;;;;;9.80;5.07;;;16.20;46.30;;;;;;4904465;29;20210;-93
2022/04/21 00:27:51;;;;;;;11.33;5.53;;;16.10;46.20;;;;;;4909412;29;20233;-94
2022/04/21 00:30:19;;;;;;;11.03;5.70;;;16.10;46.50;;;;;;4902574;29;20209;-95
2022/04/21 00:32:47;;;;;;;6.27;4.30;;;16.10;46.60;;;;;;4898023;29;20505;-94
2022/04/21 00:35:15;;;;;;;8.37;4.73;;;16.10;46.60;;;;;;4896159;29;20209;-93
2022/04/21 00:37:48;;;;;;;10.53;5.03;;;16.00;46.50;;;;;;4884917;29;20728;-92
2022/04/21 00:40:19;;;;;;;9.67;4.77;;;16.00;46.80;;;;;;4888005;29;20261;-95
2022/04/21 00:42:49;;;;;;;8.47;4.80;;;16.00;46.70;;;;;;4897528;29;20199;-94
2022/04/21 00:45:18;;;;;;;15.57;6.47;;;15.90;46.60;;;;;;4894137;29;20240;-91
2022/04/21 00:47:48;;;;;;;11.43;5.77;;;15.90;46.90;;;;;;4899365;29;20241;-94
2022/04/21 00:50:18;;;;;;;12.43;5.27;;;15.90;46.80;;;;;;4907793;29;20205;-93
2022/04/21 00:52:46;;;;;;;12.53;4.93;;;15.90;46.90;;;;;;4930601;29;20243;-93
2022/04/21 00:55:14;;;;;;;12.83;6.00;;;15.90;47.00;;;;;;4917426;29;20240;-92
2022/04/21 00:57:42;;;;;;;9.80;5.27;;;15.80;47.00;;;;;;4903183;29;20600;-92
2022/04/21 01:00:11;;;;;;;7.13;4.53;;;15.80;46.90;;;;;;4897186;29;20722;-91
2022/04/21 01:02:52;;;;;;;13.10;6.03;;;15.80;47.20;;;;;;4895708;29;20666;-91
2022/04/21 01:05:26;;;;;;;12.43;5.27;;;15.80;47.20;;;;;;4878479;29;20209;-92
2022/04/21 01:07:54;;;;;;;10.17;5.60;;;15.80;47.40;;;;;;4893381;29;20576;-92
2022/04/21 01:10:22;;;;;;;10.67;5.70;;;15.70;48.00;;;;;;4895357;29;20571;-91
2022/04/21 01:12:50;;;;;;;11.63;6.07;;;15.70;47.60;;;;;;4895640;29;20272;-94
2022/04/21 01:15:17;;;;;;;14.90;6.03;;;15.70;47.80;;;;;;4895237;29;20670;-94
2022/04/21 01:17:46;;;;;;;12.37;6.23;;;15.60;47.60;;;;;;4893040;29;20261;-94
2022/04/21 01:20:24;;;;;;;11.27;5.93;;;15.60;48.00;;;;;;4896167;29;20301;-93
2022/04/21 01:22:51;;;;;;;8.53;4.90;;;15.60;48.40;;;;;;4894213;29;20264;-93
2022/04/21 01:25:19;;;;;;;14.23;6.17;;;15.60;48.00;;;;;;4895668;29;20207;-94
2022/04/21 01:27:48;;;;;;;10.53;4.57;;;15.50;47.70;;;;;;4892443;29;20234;-93
2022/04/21 01:30:19;;;;;;;12.60;5.70;;;15.50;48.00;;;;;;4894592;29;20618;-93
2022/04/21 01:32:49;;;;;;;13.67;6.00;;;15.50;47.90;;;;;;4893902;29;20610;-95
2022/04/21 01:35:17;;;;;;;13.43;6.17;;;15.50;48.20;;;;;;4894358;29;20941;-95
2022/04/21 01:43:15;;;;;;;12.03;5.60;;;15.40;48.10;;;;;;4892055;29;20265;-93
2022/04/21 01:45:43;;;;;;;10.47;5.50;;;15.30;48.30;;;;;;4912238;29;20209;-92
2022/04/21 01:48:10;;;;;;;12.53;6.20;;;15.30;48.50;;;;;;4895522;29;20252;-93
2022/04/21 01:50:37;;;;;;;10.67;5.77;;;15.30;48.60;;;;;;4878554;29;20731;-93
2022/04/21 01:53:06;;;;;;;10.03;5.70;;;15.30;48.70;;;;;;4893393;29;20685;-91
2022/04/21 01:55:34;;;;;;;12.97;6.23;;;15.20;48.80;;;;;;4895293;29;20735;-94
2022/04/21 01:58:01;;;;;;;12.63;6.00;;;15.30;48.90;;;;;;4895215;29;20213;-93
2022/04/21 02:00:28;;;;;;;9.77;5.37;;;15.20;48.60;;;;;;4894023;29;20214;-94
2022/04/21 02:02:55;;;;;;;12.43;5.87;;;15.20;49.00;;;;;;4894723;29;20763;-93
2022/04/21 02:05:23;;;;;;;17.03;7.20;;;15.20;49.20;;;;;;4892365;29;20206;-92
2022/04/21 02:07:52;;;;;;;10.87;5.90;;;15.10;49.10;;;;;;4893383;29;20239;-94
2022/04/21 02:10:21;;;;;;;13.70;6.60;;;15.10;49.40;;;;;;4894546;29;20219;-94
2022/04/21 02:12:49;;;;;;;10.27;5.40;;;15.00;49.20;;;;;;4894055;29;20298;-92
2022/04/21 02:15:18;;;;;;;16.97;7.60;;;15.00;49.30;;;;;;4891898;29;22105;-95
2022/04/21 02:17:46;;;;;;;11.13;6.00;;;14.90;49.40;;;;;;4907691;29;20228;-92
2022/04/21 02:20:15;;;;;;;16.83;7.07;;;14.90;49.60;;;;;;4897471;29;20670;-94
2022/04/21 02:22:45;;;;;;;9.77;5.53;;;14.90;49.70;;;;;;4896643;29;20214;-94
2022/04/21 02:25:16;;;;;;;11.57;6.33;;;14.90;50.00;;;;;;4897425;29;20642;-93
2022/04/21 02:27:46;;;;;;;12.10;6.23;;;14.80;50.00;;;;;;4896314;29;20328;-93
2022/04/21 02:30:15;;;;;;;15.33;7.07;;;14.80;50.00;;;;;;4897425;29;20265;-93
2022/04/21 02:32:42;;;;;;;10.70;6.03;;;14.70;50.00;;;;;;4897716;29;20334;-93
2022/04/21 02:35:16;;;;;;;14.10;7.07;;;14.70;50.10;;;;;;4896701;29;20260;-92
2022/04/21 02:37:44;;;;;;;16.17;6.80;;;14.70;50.60;;;;;;4879479;29;20299;-92
2022/04/21 02:40:13;;;;;;;15.27;6.93;;;14.70;50.40;;;;;;4879735;29;20258;-94
2022/04/21 02:42:40;;;;;;;14.90;6.40;;;14.60;50.40;;;;;;4897352;29;20196;-94
2022/04/21 02:45:11;;;;;;;13.63;6.93;;;14.60;50.60;;;;;;4895680;29;20205;-91
2022/04/21 02:47:39;;;;;;;12.63;6.50;;;14.50;51.00;;;;;;4896839;29;20767;-92
2022/04/21 02:50:09;;;;;;;13.10;5.97;;;14.50;50.80;;;;;;4895934;29;20293;-94
2022/04/21 02:52:37;;;;;;;10.33;5.90;;;14.40;51.00;;;;;;4899023;29;20205;-94
2022/04/21 02:57:53;;;;;;;12.57;6.53;;;14.30;50.90;;;;;;4896268;29;20633;-90
2022/04/21 03:00:21;;;;;;;16.00;7.50;;;14.30;51.00;;;;;;4895229;29;20214;-93
2022/04/21 03:02:48;;;;;;;13.90;6.73;;;14.30;51.00;;;;;;4895644;29;20233;-91
2022/04/21 03:05:17;;;;;;;11.40;6.17;;;14.30;51.00;;;;;;4893072;29;20300;-91
2022/04/21 03:07:44;;;;;;;11.17;5.93;;;14.30;51.10;;;;;;4894972;29;20312;-92
2022/04/21 03:10:12;;;;;;;17.97;8.00;;;14.20;51.00;;;;;;4898625;29;20219;-92
2022/04/21 03:12:39;;;;;;;11.70;6.13;;;14.20;51.10;;;;;;4893937;29;20663;-92
2022/04/21 03:15:10;;;;;;;12.90;6.43;;;14.10;51.00;;;;;;4896450;29;20197;-91
2022/04/21 03:17:40;;;;;;;11.83;6.07;;;14.10;51.00;;;;;;4894325;29;20207;-90
2022/04/21 03:20:08;;;;;;;12.07;6.90;;;14.10;51.40;;;;;;4896021;29;20254;-91
2022/04/21 03:25:21;;;;;;;16.60;7.13;;;14.10;51.40;;;;;;4895813;29;20208;-91
2022/04/21 03:27:50;;;;;;;15.67;7.13;;;14.10;51.40;;;;;;4893744;29;20234;-94
2022/04/21 03:30:17;;;;;;;18.10;8.07;;;14.00;51.50;;;;;;4895029;29;20230;-91
2022/04/21 03:32:46;;;;;;;16.00;7.27;;;14.00;51.60;;;;;;4896342;29;20206;-94
2022/04/21 03:35:13;;;;;;;17.87;7.67;;;14.00;51.90;;;;;;4896183;29;20232;-91
2022/04/21 03:37:40;;;;;;;15.13;7.53;;;14.00;51.80;;;;;;4895803;29;20265;-91
2022/04/21 03:40:08;;;;;;;14.07;6.90;;;13.90;51.70;;;;;;4895248;29;20649;-92
2022/04/21 03:42:35;;;;;;;12.57;6.87;;;13.90;51.90;;;;;;4892824;29;20249;-90
2022/04/21 03:45:02;;;;;;;17.90;7.93;;;13.90;52.00;;;;;;4895435;29;20598;-91
2022/04/21 03:47:29;;;;;;;16.80;7.97;;;13.80;51.80;;;;;;4894259;29;20201;-92
2022/04/21 03:50:00;;;;;;;17.27;8.00;;;13.80;51.80;;;;;;4895680;29;20660;-94
2022/04/21 03:52:27;;;;;;;15.57;7.77;;;13.80;52.30;;;;;;4894245;29;20214;-93
2022/04/21 03:54:54;;;;;;;18.13;8.07;;;13.80;52.20;;;;;;4878317;29;20210;-91
2022/04/21 03:57:21;;;;;;;13.50;7.20;;;13.80;52.30;;;;;;4893594;29;20220;-93
2022/04/21 03:59:49;;;;;;;14.57;7.70;;;13.70;52.30;;;;;;4895651;29;20726;-92
2022/04/21 04:02:16;;;;;;;14.07;7.40;;;13.70;52.50;;;;;;4903781;29;20210;-92
2022/04/21 04:04:43;;;;;;;13.13;6.77;;;13.70;52.50;;;;;;4913714;29;20197;-90
2022/04/21 04:12:44;;;;;;;14.10;7.40;;;13.60;52.70;;;;;;4897801;29;20248;-91
2022/04/21 04:15:16;;;;;;;9.53;6.33;;;13.50;52.90;;;;;;4895956;29;20265;-93
2022/04/21 04:17:43;;;;;;;15.97;7.30;;;13.50;52.90;;;;;;4896079;29;20291;-91
2022/04/21 04:20:10;;;;;;;14.50;7.17;;;13.50;52.80;;;;;;4886824;29;20309;-92
2022/04/21 04:22:40;;;;;;;16.23;7.30;;;13.50;53.10;;;;;;4894313;29;20351;-93
2022/04/21 04:25:09;;;;;;;12.07;7.37;;;13.50;53.30;;;;;;4897208;29;20237;-93
2022/04/21 04:27:37;;;;;;;11.60;6.63;;;13.40;53.10;;;;;;4899396;29;20222;-92
2022/04/21 04:30:05;;;;;;;18.97;8.50;;;13.40;53.30;;;;;;4913511;29;20228;-93
2022/04/21 04:32:32;;;;;;;10.90;6.30;;;13.40;53.40;;;;;;4905221;29;20210;-94
2022/04/21 04:35:02;;;;;;;10.70;6.83;;;13.40;53.30;;;;;;4899488;29;20611;-93
2022/04/21 04:37:31;;;;;;;13.77;7.73;;;13.40;53.60;;;;;;4900058;29;20197;-93
2022/04/21 04:40:00;;;;;;;11.97;6.73;;;13.30;53.70;;;;;;4897713;29;20261;-93
2022/04/21 04:42:28;;;;;;;10.80;6.23;;;13.30;53.60;;;;;;4897907;29;20268;-94
2022/04/21 04:47:37;;;;;;;10.30;6.57;;;13.30;53.60;;;;;;4896737;29;20202;-93
2022/04/21 04:50:05;;;;;;;9.70;6.40;;;13.30;53.50;;;;;;4896862;29;20666;-93
2022/04/21 04:52:32;;;;;;;14.80;7.83;;;13.30;53.70;;;;;;4887933;29;20730;-93
2022/04/21 04:55:02;;;;;;;9.77;6.40;;;13.20;53.70;;;;;;4879956;29;20238;-94
2022/04/21 04:57:31;;;;;;;15.93;8.43;;;13.20;53.90;;;;;;4897946;29;20297;-94
2022/04/21 04:59:59;;;;;;;18.23;8.80;;;13.20;53.80;;;;;;4895810;29;20549;-93
2022/04/21 05:02:26;;;;;;;16.57;8.50;;;13.20;53.90;;;;;;4892947;29;20227;-93
2022/04/21 05:04:59;;;;;;;13.70;8.23;;;13.20;54.00;;;;;;4895946;29;20223;-94
2022/04/21 05:07:26;;;;;;;16.30;8.30;;;13.20;54.30;;;;;;4897270;29;20662;-93
2022/04/21 05:09:54;;;;;;;18.90;8.40;;;13.20;54.10;;;;;;4894992;29;20312;-93
2022/04/21 05:12:24;;;;;;;11.43;7.63;;;13.10;54.10;;;;;;4895730;29;20210;-93
2022/04/21 05:14:52;;;;;;;14.07;7.53;;;13.10;54.30;;;;;;4895534;29;20219;-92
2022/04/21 05:17:20;;;;;;;10.57;6.77;;;13.10;54.00;;;;;;4896703;29;20197;-93
2022/04/21 05:19:48;;;;;;;12.03;6.93;;;13.10;54.10;;;;;;4894010;29;20303;-92
2022/04/21 05:22:17;;;;;;;16.70;8.13;;;13.10;54.30;;;;;;4894466;29;20236;-93
2022/04/21 05:24:49;;;;;;;12.97;7.97;;;13.00;54.40;;;;;;4895838;29;20258;-93
2022/04/21 05:27:17;;;;;;;13.20;7.33;;;13.10;54.50;;;;;;4896350;29;20227;-91
2022/04/21 05:32:36;;;;;;;13.13;7.57;;;13.00;54.50;;;;;;4893861;29;20244;-91
2022/04/21 05:35:04;;;;;;;15.43;7.50;;;13.00;54.40;;;;;;4893410;29;20224;-93
2022/04/21 05:37:33;;;;;;;13.60;7.83;;;13.00;54.40;;;;;;4913602;29;20689;-94
2022/04/21 05:40:03;;;;;;;13.83;7.23;;;13.00;54.40;;;;;;4907430;29;20205;-94
2022/04/21 05:42:36;;;;;;;12.07;7.37;;;13.00;54.60;;;;;;4895689;29;20240;-93
2022/04/21 05:45:08;;;;;;;14.97;8.37;;;13.00;54.80;;;;;;4894056;29;20248;-91
2022/04/21 05:47:36;;;;;;;15.60;8.30;;;13.00;54.80;;;;;;4894687;29;20216;-94
2022/04/21 05:50:06;;;;;;;16.30;8.33;;;13.10;54.60;;;;;;4893549;29;20236;-93
2022/04/21 05:52:38;;;;;;;13.87;7.63;;;13.10;54.70;;;;;;4898326;29;20243;-95
2022/04/21 05:55:07;;;;;;;11.70;6.87;;;13.10;54.80;;;;;;4900496;29;20277;-91
2022/04/21 05:57:40;;;;;;;14.83;7.77;;;13.10;54.70;;;;;;4899593;29;20214;-94
2022/04/21 06:00:12;;;;;;;15.63;8.93;;;13.10;54.80;;;;;;4899331;29;20457;-94
2022/04/21 06:02:39;;;;;;;13.63;7.47;;;13.10;54.80;;;;;;4899249;29;20218;-93
2022/04/21 06:05:12;;;;;;;12.03;7.33;;;13.10;54.80;;;;;;4908951;29;20219;-93
2022/04/21 06:07:39;;;;;;;18.47;9.67;;;13.20;55.00;;;;;;4899397;29;20292;-92
2022/04/21 06:10:07;;;;;;;16.13;7.90;;;13.20;54.60;;;;;;4899126;29;20804;-93
2022/04/21 06:12:36;;;;;;;13.47;8.00;;;13.20;54.70;;;;;;4899810;29;20285;-94
2022/04/21 06:15:03;;;;;;;15.50;8.23;;;13.30;55.00;;;;;;4895251;29;20244;-93
2022/04/21 06:17:33;;;;;;;17.07;8.60;;;13.30;54.70;;;;;;4878574;29;20349;-90
2022/04/21 06:20:00;;;;;;;18.80;9.07;;;13.30;55.30;;;;;;4895870;29;20208;-90
2022/04/21 06:22:27;;;;;;;12.97;7.50;;;13.40;55.40;;;;;;4897607;29;20303;-92
2022/04/21 06:24:54;;;;;;;16.67;8.20;;;13.40;55.20;;;;;;4896413;29;20213;-91
2022/04/21 06:27:22;;;;;;;17.33;8.07;;;13.50;55.10;;;;;;4896701;29;20607;-92
2022/04/21 06:29:49;;;;;;;17.00;7.83;;;13.50;55.20;;;;;;4895578;29;20229;-91
2022/04/21 06:32:18;;;;;;;16.00;8.37;;;13.50;55.20;;;;;;4895068;29;20761;-91
2022/04/21 06:34:47;;;;;;;15.07;8.37;;;13.60;55.30;;;;;;4895327;29;20262;-91
2022/04/21 06:37:14;;;;;;;17.03;8.30;;;13.60;55.40;;;;;;4879532;29;20216;-91
2022/04/21 06:39:41;;;;;;;14.53;7.97;;;13.70;55.10;;;;;;4895188;29;20296;-92
2022/04/21 06:42:08;;;;;;;13.53;7.97;;;13.70;55.10;;;;;;4895564;29;20312;-91
2022/04/21 06:50:06;;;;;;;17.20;8.63;;;13.90;55.10;;;;;;4895012;29;20239;-91
2022/04/21 06:52:33;;;;;;;15.07;8.20;;;14.00;55.20;;;;;;4894602;29;20293;-92
2022/04/21 06:55:00;;;;;;;15.43;8.10;;;14.00;55.20;;;;;;4895273;29;20688;-91
2022/04/21 06:57:27;;;;;;;17.47;8.10;;;14.10;55.30;;;;;;4896574;29;20301;-90
2022/04/21 06:59:54;;;;;;;20.50;9.60;;;14.20;55.30;;;;;;4895775;29;20225;-91
2022/04/21 07:02:28;;;;;;;15.43;9.27;;;14.20;55.20;;;;;;4893991;29;20241;-92
2022/04/21 07:04:55;;;;;;;18.27;9.30;;;14.30;55.30;;;;;;4897182;29;20254;-94
2022/04/21 07:07:23;;;;;;;14.23;8.20;;;14.40;55.20;;;;;;4898104;29;20201;-94
2022/04/21 07:09:50;;;;;;;17.27;8.93;;;14.40;55.20;;;;;;4897140;29;20262;-93
2022/04/21 07:12:17;;;;;;;15.10;8.03;;;14.40;55.00;;;;;;4894936;29;20322;-92
2022/04/21 07:14:45;;;;;;;16.27;8.20;;;14.50;54.70;;;;;;4896056;29;20241;-91
2022/04/21 07:17:13;;;;;;;13.90;8.27;;;14.60;54.50;;;;;;4892261;29;20207;-92
2022/04/21 07:19:41;;;;;;;17.90;9.00;;;14.70;54.80;;;;;;4877532;29;20679;-92
2022/04/21 07:22:08;;;;;;;12.40;7.27;;;14.80;54.50;;;;;;4895232;29;20218;-91
2022/04/21 07:24:37;;;;;;;18.97;8.73;;;14.80;54.50;;;;;;4893445;29;20220;-92
2022/04/21 07:27:05;;;;;;;15.73;8.00;;;14.90;54.40;;;;;;4902818;29;20263;-93
2022/04/21 07:29:32;;;;;;;15.60;8.93;;;15.00;54.50;;;;;;4896688;29;20238;-92
2022/04/21 07:31:59;;;;;;;16.50;9.07;;;15.10;54.50;;;;;;4894788;29;20799;-91
2022/04/21 07:34:27;;;;;;;15.90;8.30;;;15.10;54.40;;;;;;4895207;29;20239;-92
2022/04/21 07:36:54;;;;;;;16.30;8.60;;;15.20;54.20;;;;;;4894967;29;20653;-92
2022/04/21 07:39:21;;;;;;;16.17;8.77;;;15.30;54.00;;;;;;4903516;29;20204;-91
2022/04/21 07:41:49;;;;;;;17.50;8.90;;;15.40;54.10;;;;;;4906163;29;20238;-91
2022/04/21 07:44:16;;;;;;;12.80;7.20;;;15.50;53.90;;;;;;4909917;29;20229;-91
2022/04/21 07:46:43;;;;;;;12.43;7.57;;;15.50;53.90;;;;;;4897407;29;20215;-94
2022/04/21 07:54:40;;;;;;;13.63;7.03;;;15.80;53.90;;;;;;4893674;29;20227;-92
2022/04/21 07:57:08;;;;;;;15.77;8.90;;;15.90;53.80;;;;;;4895759;29;20809;-92
2022/04/21 07:59:36;;;;;;;24.23;11.10;;;16.00;54.00;;;;;;4893232;29;20268;-91
2022/04/21 08:02:04;;;;;;;19.13;9.53;;;16.10;53.80;;;;;;4896771;29;20262;-91
2022/04/21 08:04:32;;;;;;;15.30;8.27;;;16.20;53.70;;;;;;4899737;29;20223;-91
2022/04/21 08:07:00;;;;;;;19.60;9.90;;;16.20;53.60;;;;;;4901389;29;20566;-92
2022/04/21 08:09:28;;;;;;;19.10;9.50;;;16.40;53.30;;;;;;4903824;29;21214;-92
2022/04/21 08:11:56;;;;;;;15.57;8.17;;;16.50;53.00;;;;;;4904234;29;20257;-93
2022/04/21 08:14:28;;;;;;;20.17;8.80;;;16.50;52.90;;;;;;4902936;29;20282;-93
2022/04/21 08:16:56;;;;;;;15.63;8.20;;;16.60;52.90;;;;;;4901654;29;20221;-94
2022/04/21 08:19:23;;;;;;;19.13;9.17;;;16.70;52.90;;;;;;4903056;29;20317;-93
2022/04/21 08:21:51;;;;;;;14.07;7.73;;;16.80;52.60;;;;;;4900884;29;20213;-96
2022/04/21 08:32:43;;;;;;;13.63;7.63;;;17.30;52.10;;;;;;4894795;29;20227;-92
2022/04/21 08:35:14;;;;;;;12.20;6.93;;;17.40;52.10;;;;;;4894521;29;20697;-92
2022/04/21 08:37:44;;;;;;;14.37;7.87;;;17.50;52.10;;;;;;4894639;29;20293;-93
2022/04/21 08:40:11;;;;;;;14.17;7.73;;;17.60;51.90;;;;;;4896251;29;20221;-94
2022/04/21 08:42:41;;;;;;;13.20;7.57;;;17.70;51.70;;;;;;4895107;29;20569;-92
2022/04/21 08:45:14;;;;;;;12.30;7.17;;;17.80;51.50;;;;;;4894935;29;20261;-94
2022/04/21 08:47:46;;;;;;;13.33;6.87;;;17.90;51.30;;;;;;4894067;29;20209;-94
2022/04/21 08:50:16;;;;;;;19.60;8.53;;;18.00;51.10;;;;;;4894014;29;20784;-92
2022/04/21 08:52:45;;;;;;;11.13;6.50;;;18.20;50.70;;;;;;4894060;29;20233;-90
2022/04/21 08:55:12;;;;;;;12.13;5.90;;;18.30;50.90;;;;;;4894252;29;20224;-92
2022/04/21 08:57:42;;;;;;;8.47;4.70;;;18.40;50.80;;;;;;4896307;29;20209;-93
2022/04/21 09:00:12;;;;;;;15.47;6.17;;;18.60;50.20;;;;;;4891759;29;20293;-93
2022/04/21 09:02:45;;;;;;;18.17;7.43;;;18.80;49.70;;;;;;4892240;29;20206;-92
2022/04/21 09:05:12;;;;;;;9.77;5.73;;;19.00;49.50;;;;;;4888700;29;20233;-94
2022/04/21 09:07:46;;;;;;;22.13;9.63;;;19.20;49.30;;;;;;4894473;29;20714;-92
2022/04/21 09:10:16;;;;;;;14.13;6.23;;;19.40;49.30;;;;;;4893147;29;20281;-92
2022/04/21 09:12:46;;;;;;;12.73;6.60;;;19.60;48.90;;;;;;4896532;29;20278;-92
2022/04/21 09:15:16;;;;;;;17.27;7.43;;;19.80;48.80;;;;;;4894542;29;20201;-92
2022/04/21 09:17:45;;;;;;;14.17;7.57;;;20.00;48.20;;;;;;4895197;29;20215;-93
2022/04/21 09:20:16;;;;;;;14.13;6.67;;;20.20;47.40;;;;;;4898060;29;20201;-96
2022/04/21 09:22:49;;;;;;;17.67;7.30;;;20.40;47.00;;;;;;4898966;29;20641;-94
2022/04/21 09:25:17;;;;;;;12.70;6.60;;;20.60;46.80;;;;;;4899815;29;20208;-96
2022/04/21 09:27:49;;;;;;;12.17;5.67;;;20.80;46.90;;;;;;4904339;29;20201;-94
2022/04/21 09:30:19;;;;;;;18.63;9.03;;;21.00;47.20;;;;;;4900628;29;20319;-92
2022/04/21 09:32:55;;;;;;;15.10;7.33;;;21.20;47.10;;;;;;4905316;29;20224;-93
2022/04/21 09:35:23;;;;;;;13.83;6.17;;;21.30;45.20;;;;;;4902719;29;20748;-93
2022/04/21 09:37:52;;;;;;;12.23;6.37;;;21.50;46.50;;;;;;4902931;29;20764;-94
2022/04/21 09:40:21;;;;;;;11.23;5.83;;;21.60;45.40;;;;;;4904699;29;20776;-93
2022/04/21 09:42:56;;;;;;;12.67;7.03;;;21.80;45.30;;;;;;4904175;29;20683;-92
2022/04/21 09:48:23;;;;;;;10.23;5.37;;;22.10;44.40;;;;;;4902852;29;20251;-92
2022/04/21 09:51:00;;;;;;;9.77;5.53;;;22.20;44.20;;;;;;4903753;29;20259;-91
2022/04/21 09:53:27;;;;;;;14.63;6.33;;;22.30;44.00;;;;;;4903258;29;20308;-92
2022/04/21 09:56:08;;;;;;;8.50;4.80;;;22.50;44.40;;;;;;4899276;29;20502;-91
2022/04/21 09:58:38;;;;;;;7.50;4.33;;;22.60;43.70;;;;;;4908216;29;20296;-92
2022/04/21 10:01:06;;;;;;;8.17;4.67;;;22.70;44.10;;;;;;4896744;29;20208;-91
2022/04/21 10:03:34;;;;;;;13.00;4.90;;;22.80;43.60;;;;;;4894801;29;20212;-92
2022/04/21 10:06:01;;;;;;;9.43;4.47;;;23.00;43.30;;;;;;4896833;29;20666;-89
2022/04/21 10:08:30;;;;;;;11.00;4.33;;;23.10;43.10;;;;;;4894933;29;20309;-92
2022/04/21 10:10:58;;;;;;;9.67;4.83;;;23.30;42.90;;;;;;4896179;29;20356;-91
2022/04/21 10:13:25;;;;;;;12.10;4.93;;;23.30;42.30;;;;;;4896698;29;20292;-92
2022/04/21 10:15:53;;;;;;;8.03;4.33;;;23.50;41.40;;;;;;4896822;29;20689;-93
2022/04/21 10:18:22;;;;;;;7.70;3.97;;;23.60;40.60;;;;;;4897030;29;20202;-92
2022/04/21 10:20:55;;;;;;;7.33;4.13;;;23.70;41.60;;;;;;4892833;29;20220;-90
2022/04/21 10:23:24;;;;;;;7.27;4.13;;;23.80;40.50;;;;;;4902939;29;20241;-90
2022/04/21 10:25:59;;;;;;;15.30;5.50;;;23.80;40.30;;;;;;4905989;29;20241;-90
2022/04/21 10:28:39;;;;;;;7.67;4.27;;;23.90;39.60;;;;;;4885055;29;20261;-92
2022/04/21 10:31:29;;;;;;;7.13;4.27;;;24.00;39.80;;;;;;4899237;29;20229;-92
2022/04/21 10:33:59;;;;;;;7.17;4.63;;;24.10;39.70;;;;;;4896726;29;20210;-93
2022/04/21 10:36:41;;;;;;;7.60;4.17;;;24.20;40.30;;;;;;4896443;29;20274;-92
2022/04/21 10:39:38;;;;;;;10.33;4.77;;;24.30;39.10;;;;;;4894890;29;20661;-96
2022/04/21 10:42:22;;;;;;;6.97;4.10;;;24.40;38.80;;;;;;4884905;29;20221;-95
2022/04/21 10:44:51;;;;;;;10.80;5.37;;;24.40;38.40;;;;;;4881984;29;20316;-91
2022/04/21 10:47:32;;;;;;;13.87;6.47;;;24.40;38.60;;;;;;4883529;29;20208;-90
2022/04/21 10:50:01;;;;;;;7.50;4.17;;;24.40;37.50;;;;;;4888100;29;20648;-91
2022/04/21 10:58:57;;;;;;;11.60;6.53;;;24.50;38.20;;;;;;4838289;29;20204;-92
2022/04/21 11:01:31;;;;;;;10.90;6.30;;;24.60;37.30;;;;;;4886253;29;20215;-92
2022/04/21 11:04:21;;;;;;;8.23;4.63;;;24.60;37.50;;;;;;4890474;29;20205;-94
2022/04/21 11:06:52;;;;;;;9.53;5.03;;;24.70;37.20;;;;;;4889060;29;20269;-93
2022/04/21 11:09:50;;;;;;;9.90;5.67;;;24.70;38.00;;;;;;4886690;29;20692;-92
2022/04/21 11:12:35;;;;;;;13.17;7.17;;;24.80;37.80;;;;;;4903253;29;20208;-92
2022/04/21 11:15:31;;;;;;;11.20;6.63;;;24.80;38.90;;;;;;4912656;29;20288;-92
2022/04/21 11:18:09;;;;;;;11.67;6.83;;;25.00;38.00;;;;;;4918492;29;20205;-90
2022/04/21 11:20:37;;;;;;;8.87;5.60;;;25.10;38.00;;;;;;4904736;29;20219;-93
2022/04/21 11:23:10;;;;;;;10.07;6.77;;;25.10;37.50;;;;;;4904655;29;20231;-93
2022/04/21 11:25:38;;;;;;;9.50;5.80;;;25.20;37.60;;;;;;4908545;29;20236;-90
2022/04/21 11:28:07;;;;;;;9.70;6.40;;;25.30;38.10;;;;;;4903690;29;20229;-89
2022/04/21 11:30:34;;;;;;;12.67;7.33;;;25.30;37.70;;;;;;4892838;29;20217;-92
2022/04/21 11:33:10;;;;;;;9.93;6.43;;;25.30;37.80;;;;;;4907372;29;21380;-94
2022/04/21 11:35:38;;;;;;;11.27;7.33;;;25.30;37.30;;;;;;4901054;29;20205;-91
2022/04/21 11:38:13;;;;;;;9.07;6.87;;;25.30;37.20;;;;;;4904508;29;20671;-91
2022/04/21 11:40:41;;;;;;;9.20;5.90;;;25.30;37.20;;;;;;4908405;29;20256;-92
2022/04/21 11:43:20;;;;;;;9.27;6.50;;;25.30;37.70;;;;;;4916085;29;20233;-95
2022/04/21 11:46:05;;;;;;;10.33;6.33;;;25.30;36.50;;;;;;4916317;29;20224;-94
2022/04/21 11:48:36;;;;;;;9.73;5.67;;;25.30;36.80;;;;;;4908320;29;20201;-93
2022/04/21 11:51:04;;;;;;;10.23;6.20;;;25.30;36.80;;;;;;4909595;29;20220;-94
2022/04/21 11:53:36;;;;;;;12.30;6.33;;;25.30;36.80;;;;;;4907110;29;20269;-93
2022/04/21 11:56:06;;;;;;;11.87;5.60;;;25.30;36.80;;;;;;4892735;29;20209;-96
2022/04/21 11:58:38;;;;;;;9.53;6.23;;;25.30;36.60;;;;;;4901404;29;20587;-90
2022/04/21 12:06:56;;;;;;;11.43;6.90;;;25.30;36.80;;;;;;4900881;29;20207;-89
2022/04/21 12:12:20;;;;;;;11.20;5.20;;;25.30;36.50;;;;;;4940364;23;20311;-94
2022/04/21 12:14:51;;;;;;;11.83;6.30;;;25.40;36.00;;;;;;4925000;29;20273;-89
2022/04/21 12:17:20;;;;;;;10.70;6.33;;;25.40;36.10;;;;;;4932406;29;20293;-89
2022/04/21 12:19:46;;;;;;;9.17;6.20;;;25.50;35.90;;;;;;4934606;29;20212;-89
2022/04/21 12:22:16;;;;;;;7.80;5.53;;;25.50;35.50;;;;;;4923547;29;20239;-91
2022/04/21 12:24:54;;;;;;;12.93;5.60;;;25.60;34.60;;;;;;4932542;29;20325;-91
2022/04/21 12:27:23;;;;;;;10.10;5.90;;;25.60;35.00;;;;;;4921329;29;20196;-92
2022/04/21 12:29:52;;;;;;;10.77;6.20;;;25.70;35.50;;;;;;4914431;29;20275;-91
2022/04/21 12:32:22;;;;;;;7.93;5.10;;;25.70;33.80;;;;;;4926132;29;20228;-89
2022/04/21 12:34:51;;;;;;;11.20;5.23;;;25.80;34.40;;;;;;4925297;29;20336;-89
2022/04/21 12:37:25;;;;;;;8.40;4.90;;;25.80;34.20;;;;;;4934037;29;20732;-92
2022/04/21 12:39:54;;;;;;;9.90;5.50;;;25.80;33.90;;;;;;4930371;29;20283;-88
2022/04/21 12:42:27;;;;;;;8.67;5.50;;;25.80;34.00;;;;;;4928848;29;20223;-88
2022/04/21 12:44:55;;;;;;;13.33;7.03;;;25.80;33.30;;;;;;4923646;29;20673;-87
2022/04/21 12:50:44;;;;;;;14.97;7.30;;;25.80;33.70;;;;;;4901591;23;20854;-92
2022/04/21 12:53:17;;;;;;;9.80;5.63;;;25.90;34.00;;;;;;4903992;29;20205;-92
2022/04/21 12:55:45;;;;;;;8.67;5.57;;;25.90;34.30;;;;;;4898436;29;20216;-92
2022/04/21 12:58:44;;;;;;;11.40;5.57;;;25.90;34.10;;;;;;4911058;29;20713;-93
2022/04/21 13:01:12;;;;;;;7.73;4.57;;;26.00;33.50;;;;;;4905651;29;20198;-96
2022/04/21 13:03:45;;;;;;;5.70;4.30;;;26.10;34.10;;;;;;4915201;29;20217;-95
2022/04/21 13:06:12;;;;;;;10.40;5.70;;;26.20;33.30;;;;;;4899643;29;20201;-92
2022/04/21 13:08:41;;;;;;;7.57;5.33;;;26.30;34.40;;;;;;4910721;29;20237;-91
2022/04/21 13:11:12;;;;;;;12.10;6.17;;;26.30;33.30;;;;;;4900059;29;20670;-92
2022/04/21 13:13:39;;;;;;;9.33;5.83;;;26.40;33.10;;;;;;4915127;29;20227;-91
2022/04/21 13:16:06;;;;;;;15.00;6.87;;;26.50;33.20;;;;;;4907730;29;20650;-93
2022/04/21 13:18:33;;;;;;;8.03;4.53;;;26.60;33.20;;;;;;4909223;29;20213;-90
2022/04/21 13:23:46;;;;;;;7.73;4.87;;;26.70;32.90;;;;;;4906709;29;20231;-89
2022/04/21 13:26:14;;;;;;;10.27;5.40;;;26.80;32.90;;;;;;4904250;29;20201;-91
2022/04/21 13:28:41;;;;;;;8.90;5.40;;;26.80;32.40;;;;;;4910308;29;20228;-91
2022/04/21 13:33:54;;;;;;;6.30;4.47;;;26.90;32.30;;;;;;4913098;29;20788;-90
2022/04/21 13:36:27;;;;;;;5.03;4.07;;;27.00;31.70;;;;;;4910741;29;20201;-94
2022/04/21 13:38:58;;;;;;;10.60;5.23;;;26.90;31.70;;;;;;4914259;29;20295;-94
2022/04/21 13:41:27;;;;;;;7.43;4.27;;;27.00;31.80;;;;;;4894420;29;20224;-90
2022/04/21 13:43:54;;;;;;;6.57;4.50;;;27.00;31.20;;;;;;4899546;29;20224;-92
2022/04/21 13:46:21;;;;;;;5.70;4.40;;;27.00;31.30;;;;;;4902731;29;20269;-91
2022/04/21 13:48:48;;;;;;;6.97;4.80;;;27.00;31.10;;;;;;4898492;29;20216;-90
2022/04/21 13:51:16;;;;;;;5.20;4.17;;;26.90;31.40;;;;;;4903177;29;20261;-92
2022/04/21 13:53:43;;;;;;;7.23;4.60;;;26.90;31.40;;;;;;4904515;29;20220;-91
2022/04/21 13:56:16;;;;;;;10.77;5.53;;;26.90;31.40;;;;;;4908244;29;20316;-89
2022/04/21 13:58:44;;;;;;;5.93;4.43;;;26.90;31.60;;;;;;4904577;29;20738;-90
2022/04/21 14:01:11;;;;;;;6.87;4.60;;;26.90;31.40;;;;;;4900404;29;20245;-93